sensor_id;sensor_type;location;lat;lon;timestamp;P1;durP1;ratioP1;P2;durP2;ratioP2
7835;SDS011;3963;42.658;23.298;2022-11-20T00:00:37;4.23;;;1.63;;
7835;SDS011;3963;42.658;23.298;2022-11-20T00:03:04;2.83;;;1.40;;
7835;SDS011;3963;42.658;23.298;2022-11-20T00:05:33;2.00;;;1.30;;
7835;SDS011;3963;42.658;23.298;2022-11-20T00:08:00;3.57;;;1.77;;
7835;SDS011;3963;42.658;23.298;2022-11-20T00:10:27;3.80;;;1.53;;
7835;SDS011;3963;42.658;23.298;2022-11-20T00:12:53;3.60;;;1.37;;
7835;SDS011;3963;42.658;23.298;2022-11-20T00:15:20;2.70;;;1.83;;
7835;SDS011;3963;42.658;23.298;2022-11-20T00:17:47;4.73;;;1.40;;
7835;SDS011;3963;42.658;23.298;2022-11-20T00:20:14;3.70;;;1.43;;
7835;SDS011;3963;42.658;23.298;2022-11-20T00:22:42;2.70;;;1.80;;
7835;SDS011;3963;42.658;23.298;2022-11-20T00:25:09;5.63;;;1.50;;
7835;SDS011;3963;42.658;23.298;2022-11-20T00:27:36;1.60;;;1.23;;
7835;SDS011;3963;42.658;23.298;2022-11-20T00:30:03;3.67;;;1.53;;
7835;SDS011;3963;42.658;23.298;2022-11-20T00:32:31;1.50;;;1.30;;
7835;SDS011;3963;42.658;23.298;2022-11-20T00:34:58;3.00;;;1.40;;
7835;SDS011;3963;42.658;23.298;2022-11-20T00:37:25;2.83;;;1.20;;
7835;SDS011;3963;42.658;23.298;2022-11-20T00:39:53;2.87;;;1.40;;
7835;SDS011;3963;42.658;23.298;2022-11-20T00:42:20;4.53;;;1.20;;
7835;SDS011;3963;42.658;23.298;2022-11-20T00:44:46;2.80;;;1.30;;
7835;SDS011;3963;42.658;23.298;2022-11-20T00:47:13;2.70;;;1.40;;
7835;SDS011;3963;42.658;23.298;2022-11-20T00:49:40;5.13;;;1.50;;
7835;SDS011;3963;42.658;23.298;2022-11-20T00:52:07;2.30;;;1.30;;
7835;SDS011;3963;42.658;23.298;2022-11-20T00:54:33;2.50;;;1.27;;
7835;SDS011;3963;42.658;23.298;2022-11-20T00:57:02;3.53;;;1.40;;
7835;SDS011;3963;42.658;23.298;2022-11-20T00:59:28;3.50;;;1.20;;
7835;SDS011;3963;42.658;23.298;2022-11-20T01:01:55;2.20;;;1.77;;
7835;SDS011;3963;42.658;23.298;2022-11-20T01:04:22;1.60;;;1.20;;
7835;SDS011;3963;42.658;23.298;2022-11-20T01:06:49;2.10;;;1.17;;
7835;SDS011;3963;42.658;23.298;2022-11-20T01:09:16;6.43;;;2.27;;
7835;SDS011;3963;42.658;23.298;2022-11-20T01:11:43;1.80;;;1.10;;
7835;SDS011;3963;42.658;23.298;2022-11-20T01:14:13;3.47;;;1.33;;
7835;SDS011;3963;42.658;23.298;2022-11-20T01:16:42;4.23;;;1.40;;
7835;SDS011;3963;42.658;23.298;2022-11-20T01:19:10;3.60;;;1.50;;
7835;SDS011;3963;42.658;23.298;2022-11-20T01:21:40;1.43;;;1.00;;
7835;SDS011;3963;42.658;23.298;2022-11-20T01:24:10;2.13;;;1.03;;
7835;SDS011;3963;42.658;23.298;2022-11-20T01:26:39;4.23;;;1.50;;
7835;SDS011;3963;42.658;23.298;2022-11-20T01:29:07;2.40;;;1.27;;
7835;SDS011;3963;42.658;23.298;2022-11-20T01:31:40;1.33;;;1.07;;
7835;SDS011;3963;42.658;23.298;2022-11-20T01:34:07;3.43;;;1.30;;
7835;SDS011;3963;42.658;23.298;2022-11-20T01:36:36;2.40;;;1.17;;
7835;SDS011;3963;42.658;23.298;2022-11-20T01:39:05;4.00;;;1.50;;
7835;SDS011;3963;42.658;23.298;2022-11-20T01:41:33;2.57;;;1.10;;
7835;SDS011;3963;42.658;23.298;2022-11-20T01:44:22;3.17;;;1.17;;
7835;SDS011;3963;42.658;23.298;2022-11-20T01:47:11;2.37;;;1.07;;
7835;SDS011;3963;42.658;23.298;2022-11-20T01:49:42;1.73;;;1.13;;
7835;SDS011;3963;42.658;23.298;2022-11-20T01:52:14;2.03;;;1.23;;
7835;SDS011;3963;42.658;23.298;2022-11-20T01:54:44;4.40;;;1.20;;
7835;SDS011;3963;42.658;23.298;2022-11-20T01:57:16;1.87;;;0.97;;
7835;SDS011;3963;42.658;23.298;2022-11-20T01:59:47;1.90;;;1.20;;
7835;SDS011;3963;42.658;23.298;2022-11-20T02:02:19;2.00;;;0.80;;
7835;SDS011;3963;42.658;23.298;2022-11-20T02:04:47;1.57;;;1.20;;
7835;SDS011;3963;42.658;23.298;2022-11-20T02:07:18;2.13;;;1.00;;
7835;SDS011;3963;42.658;23.298;2022-11-20T02:09:46;1.93;;;1.20;;
7835;SDS011;3963;42.658;23.298;2022-11-20T02:12:13;2.97;;;0.90;;
7835;SDS011;3963;42.658;23.298;2022-11-20T02:14:54;2.83;;;1.17;;
7835;SDS011;3963;42.658;23.298;2022-11-20T02:17:23;2.90;;;1.00;;
7835;SDS011;3963;42.658;23.298;2022-11-20T02:19:50;2.00;;;1.40;;
7835;SDS011;3963;42.658;23.298;2022-11-20T02:22:18;3.90;;;1.10;;
7835;SDS011;3963;42.658;23.298;2022-11-20T02:24:51;2.97;;;1.37;;
7835;SDS011;3963;42.658;23.298;2022-11-20T02:27:18;3.07;;;1.10;;
7835;SDS011;3963;42.658;23.298;2022-11-20T02:29:46;2.73;;;1.13;;
7835;SDS011;3963;42.658;23.298;2022-11-20T02:32:19;2.87;;;1.20;;
7835;SDS011;3963;42.658;23.298;2022-11-20T02:34:47;2.00;;;1.00;;
7835;SDS011;3963;42.658;23.298;2022-11-20T02:37:14;2.43;;;1.20;;
7835;SDS011;3963;42.658;23.298;2022-11-20T02:39:41;3.40;;;1.40;;
7835;SDS011;3963;42.658;23.298;2022-11-20T02:42:12;2.03;;;1.30;;
7835;SDS011;3963;42.658;23.298;2022-11-20T02:44:39;2.10;;;1.23;;
7835;SDS011;3963;42.658;23.298;2022-11-20T02:47:06;3.27;;;1.20;;
7835;SDS011;3963;42.658;23.298;2022-11-20T02:49:33;1.17;;;1.07;;
7835;SDS011;3963;42.658;23.298;2022-11-20T02:52:00;1.70;;;1.23;;
7835;SDS011;3963;42.658;23.298;2022-11-20T02:54:27;1.63;;;1.10;;
7835;SDS011;3963;42.658;23.298;2022-11-20T02:56:54;1.80;;;1.50;;
7835;SDS011;3963;42.658;23.298;2022-11-20T02:59:22;3.23;;;1.23;;
7835;SDS011;3963;42.658;23.298;2022-11-20T03:01:49;3.47;;;1.23;;
7835;SDS011;3963;42.658;23.298;2022-11-20T03:04:16;4.60;;;1.73;;
7835;SDS011;3963;42.658;23.298;2022-11-20T03:06:42;6.47;;;1.70;;
7835;SDS011;3963;42.658;23.298;2022-11-20T03:09:09;4.27;;;2.27;;
7835;SDS011;3963;42.658;23.298;2022-11-20T03:11:36;6.20;;;1.63;;
7835;SDS011;3963;42.658;23.298;2022-11-20T03:14:03;2.50;;;1.50;;
7835;SDS011;3963;42.658;23.298;2022-11-20T03:16:32;2.50;;;1.30;;
7835;SDS011;3963;42.658;23.298;2022-11-20T03:18:59;3.50;;;1.50;;
7835;SDS011;3963;42.658;23.298;2022-11-20T03:21:26;2.53;;;1.37;;
7835;SDS011;3963;42.658;23.298;2022-11-20T03:23:54;2.70;;;1.57;;
7835;SDS011;3963;42.658;23.298;2022-11-20T03:26:22;2.07;;;1.40;;
7835;SDS011;3963;42.658;23.298;2022-11-20T03:28:51;2.83;;;1.30;;
7835;SDS011;3963;42.658;23.298;2022-11-20T03:31:21;3.53;;;1.50;;
7835;SDS011;3963;42.658;23.298;2022-11-20T03:33:50;2.20;;;1.57;;
7835;SDS011;3963;42.658;23.298;2022-11-20T03:36:18;2.07;;;1.40;;
7835;SDS011;3963;42.658;23.298;2022-11-20T03:38:46;3.07;;;1.60;;
7835;SDS011;3963;42.658;23.298;2022-11-20T03:41:15;2.77;;;1.07;;
7835;SDS011;3963;42.658;23.298;2022-11-20T03:43:46;4.27;;;1.33;;
7835;SDS011;3963;42.658;23.298;2022-11-20T03:46:14;4.00;;;1.27;;
7835;SDS011;3963;42.658;23.298;2022-11-20T03:48:41;3.93;;;1.30;;
7835;SDS011;3963;42.658;23.298;2022-11-20T03:51:10;1.50;;;1.03;;
7835;SDS011;3963;42.658;23.298;2022-11-20T03:53:38;3.90;;;1.20;;
7835;SDS011;3963;42.658;23.298;2022-11-20T03:56:05;2.27;;;1.30;;
7835;SDS011;3963;42.658;23.298;2022-11-20T03:58:33;2.10;;;1.30;;
7835;SDS011;3963;42.658;23.298;2022-11-20T04:01:04;1.87;;;1.40;;
7835;SDS011;3963;42.658;23.298;2022-11-20T04:03:32;5.27;;;1.30;;
7835;SDS011;3963;42.658;23.298;2022-11-20T04:06:01;1.70;;;1.30;;
7835;SDS011;3963;42.658;23.298;2022-11-20T04:08:30;5.70;;;1.30;;
7835;SDS011;3963;42.658;23.298;2022-11-20T04:11:07;2.00;;;1.27;;
7835;SDS011;3963;42.658;23.298;2022-11-20T04:13:35;4.83;;;1.27;;
7835;SDS011;3963;42.658;23.298;2022-11-20T04:16:02;2.93;;;1.10;;
7835;SDS011;3963;42.658;23.298;2022-11-20T04:18:29;2.40;;;1.10;;
7835;SDS011;3963;42.658;23.298;2022-11-20T04:20:56;4.67;;;1.30;;
7835;SDS011;3963;42.658;23.298;2022-11-20T04:23:23;2.97;;;1.27;;
7835;SDS011;3963;42.658;23.298;2022-11-20T04:25:51;2.40;;;1.20;;
7835;SDS011;3963;42.658;23.298;2022-11-20T04:28:18;1.80;;;1.30;;
7835;SDS011;3963;42.658;23.298;2022-11-20T04:30:45;4.93;;;1.57;;
7835;SDS011;3963;42.658;23.298;2022-11-20T04:33:11;1.77;;;1.20;;
7835;SDS011;3963;42.658;23.298;2022-11-20T04:35:38;2.30;;;1.10;;
7835;SDS011;3963;42.658;23.298;2022-11-20T04:38:05;1.30;;;1.10;;
7835;SDS011;3963;42.658;23.298;2022-11-20T04:40:32;1.87;;;1.20;;
7835;SDS011;3963;42.658;23.298;2022-11-20T04:43:00;1.30;;;1.03;;
7835;SDS011;3963;42.658;23.298;2022-11-20T04:45:27;3.33;;;1.27;;
7835;SDS011;3963;42.658;23.298;2022-11-20T04:47:53;2.97;;;1.13;;
7835;SDS011;3963;42.658;23.298;2022-11-20T04:50:20;1.77;;;1.13;;
7835;SDS011;3963;42.658;23.298;2022-11-20T04:52:47;4.13;;;1.40;;
7835;SDS011;3963;42.658;23.298;2022-11-20T04:55:13;1.10;;;1.00;;
7835;SDS011;3963;42.658;23.298;2022-11-20T04:57:40;2.27;;;1.13;;
7835;SDS011;3963;42.658;23.298;2022-11-20T05:00:09;1.87;;;1.13;;
7835;SDS011;3963;42.658;23.298;2022-11-20T05:02:37;1.20;;;1.00;;
7835;SDS011;3963;42.658;23.298;2022-11-20T05:05:04;1.00;;;0.90;;
7835;SDS011;3963;42.658;23.298;2022-11-20T05:07:31;4.10;;;1.73;;
7835;SDS011;3963;42.658;23.298;2022-11-20T05:09:58;4.63;;;1.00;;
7835;SDS011;3963;42.658;23.298;2022-11-20T05:12:24;2.30;;;0.90;;
7835;SDS011;3963;42.658;23.298;2022-11-20T05:14:51;4.33;;;1.10;;
7835;SDS011;3963;42.658;23.298;2022-11-20T05:17:20;3.03;;;1.03;;
7835;SDS011;3963;42.658;23.298;2022-11-20T05:19:48;2.37;;;1.03;;
7835;SDS011;3963;42.658;23.298;2022-11-20T05:22:15;2.23;;;1.20;;
7835;SDS011;3963;42.658;23.298;2022-11-20T05:24:41;3.50;;;1.40;;
7835;SDS011;3963;42.658;23.298;2022-11-20T05:27:08;2.87;;;1.20;;
7835;SDS011;3963;42.658;23.298;2022-11-20T05:29:35;3.80;;;1.20;;
7835;SDS011;3963;42.658;23.298;2022-11-20T05:32:02;3.27;;;1.20;;
7835;SDS011;3963;42.658;23.298;2022-11-20T05:34:32;6.33;;;1.40;;
7835;SDS011;3963;42.658;23.298;2022-11-20T05:36:59;1.17;;;0.97;;
7835;SDS011;3963;42.658;23.298;2022-11-20T05:39:26;2.10;;;1.27;;
7835;SDS011;3963;42.658;23.298;2022-11-20T05:41:52;10.60;;;2.83;;
7835;SDS011;3963;42.658;23.298;2022-11-20T05:44:33;3.33;;;1.40;;
7835;SDS011;3963;42.658;23.298;2022-11-20T05:47:00;2.77;;;1.70;;
7835;SDS011;3963;42.658;23.298;2022-11-20T05:49:26;3.00;;;0.97;;
7835;SDS011;3963;42.658;23.298;2022-11-20T05:51:56;2.10;;;1.43;;
7835;SDS011;3963;42.658;23.298;2022-11-20T05:54:23;2.43;;;1.03;;
7835;SDS011;3963;42.658;23.298;2022-11-20T05:56:50;2.10;;;1.00;;
7835;SDS011;3963;42.658;23.298;2022-11-20T05:59:17;1.70;;;1.10;;
7835;SDS011;3963;42.658;23.298;2022-11-20T06:01:43;3.77;;;1.60;;
7835;SDS011;3963;42.658;23.298;2022-11-20T06:04:11;1.50;;;1.10;;
7835;SDS011;3963;42.658;23.298;2022-11-20T06:06:37;4.97;;;1.30;;
7835;SDS011;3963;42.658;23.298;2022-11-20T06:09:06;2.20;;;1.20;;
7835;SDS011;3963;42.658;23.298;2022-11-20T06:11:33;4.40;;;1.60;;
7835;SDS011;3963;42.658;23.298;2022-11-20T06:14:01;2.77;;;1.10;;
7835;SDS011;3963;42.658;23.298;2022-11-20T06:16:27;3.23;;;1.47;;
7835;SDS011;3963;42.658;23.298;2022-11-20T06:18:54;6.83;;;1.63;;
7835;SDS011;3963;42.658;23.298;2022-11-20T06:21:23;3.73;;;1.10;;
7835;SDS011;3963;42.658;23.298;2022-11-20T06:23:50;3.03;;;1.83;;
7835;SDS011;3963;42.658;23.298;2022-11-20T06:26:20;6.60;;;1.20;;
7835;SDS011;3963;42.658;23.298;2022-11-20T06:28:49;3.47;;;1.00;;
7835;SDS011;3963;42.658;23.298;2022-11-20T06:31:17;4.90;;;1.40;;
7835;SDS011;3963;42.658;23.298;2022-11-20T06:33:46;4.50;;;1.40;;
7835;SDS011;3963;42.658;23.298;2022-11-20T06:36:14;1.97;;;1.20;;
7835;SDS011;3963;42.658;23.298;2022-11-20T06:38:42;4.23;;;1.10;;
7835;SDS011;3963;42.658;23.298;2022-11-20T06:41:10;2.77;;;1.03;;
7835;SDS011;3963;42.658;23.298;2022-11-20T06:43:40;2.40;;;1.07;;
7835;SDS011;3963;42.658;23.298;2022-11-20T06:46:08;2.20;;;1.13;;
7835;SDS011;3963;42.658;23.298;2022-11-20T06:48:36;4.23;;;0.97;;
7835;SDS011;3963;42.658;23.298;2022-11-20T06:51:03;2.67;;;1.20;;
7835;SDS011;3963;42.658;23.298;2022-11-20T06:53:31;3.13;;;1.10;;
7835;SDS011;3963;42.658;23.298;2022-11-20T06:55:58;1.73;;;1.10;;
7835;SDS011;3963;42.658;23.298;2022-11-20T06:58:26;2.97;;;0.90;;
7835;SDS011;3963;42.658;23.298;2022-11-20T07:00:54;3.83;;;0.73;;
7835;SDS011;3963;42.658;23.298;2022-11-20T07:03:24;2.30;;;1.00;;
7835;SDS011;3963;42.658;23.298;2022-11-20T07:05:51;2.87;;;1.00;;
7835;SDS011;3963;42.658;23.298;2022-11-20T07:08:18;1.30;;;0.93;;
7835;SDS011;3963;42.658;23.298;2022-11-20T07:10:44;3.93;;;1.20;;
7835;SDS011;3963;42.658;23.298;2022-11-20T07:13:11;1.73;;;1.30;;
7835;SDS011;3963;42.658;23.298;2022-11-20T07:15:38;5.20;;;1.63;;
7835;SDS011;3963;42.658;23.298;2022-11-20T07:18:06;5.20;;;1.30;;
7835;SDS011;3963;42.658;23.298;2022-11-20T07:20:33;3.03;;;1.27;;
7835;SDS011;3963;42.658;23.298;2022-11-20T07:23:00;3.77;;;1.13;;
7835;SDS011;3963;42.658;23.298;2022-11-20T07:25:27;4.13;;;1.20;;
7835;SDS011;3963;42.658;23.298;2022-11-20T07:27:56;3.00;;;1.20;;
7835;SDS011;3963;42.658;23.298;2022-11-20T07:30:23;4.80;;;1.60;;
7835;SDS011;3963;42.658;23.298;2022-11-20T07:32:50;5.23;;;1.20;;
7835;SDS011;3963;42.658;23.298;2022-11-20T07:35:18;2.37;;;1.63;;
7835;SDS011;3963;42.658;23.298;2022-11-20T07:37:45;3.13;;;1.40;;
7835;SDS011;3963;42.658;23.298;2022-11-20T07:40:12;3.13;;;1.20;;
7835;SDS011;3963;42.658;23.298;2022-11-20T07:42:41;2.17;;;1.00;;
7835;SDS011;3963;42.658;23.298;2022-11-20T07:45:14;4.10;;;1.47;;
7835;SDS011;3963;42.658;23.298;2022-11-20T07:47:41;4.60;;;1.67;;
7835;SDS011;3963;42.658;23.298;2022-11-20T07:50:08;3.27;;;1.67;;
7835;SDS011;3963;42.658;23.298;2022-11-20T07:52:36;3.60;;;1.30;;
7835;SDS011;3963;42.658;23.298;2022-11-20T07:55:03;4.60;;;1.40;;
7835;SDS011;3963;42.658;23.298;2022-11-20T07:57:30;1.90;;;1.27;;
7835;SDS011;3963;42.658;23.298;2022-11-20T07:59:57;5.57;;;1.43;;
7835;SDS011;3963;42.658;23.298;2022-11-20T08:02:24;5.40;;;1.70;;
7835;SDS011;3963;42.658;23.298;2022-11-20T08:04:52;6.50;;;2.20;;
7835;SDS011;3963;42.658;23.298;2022-11-20T08:07:19;3.90;;;1.57;;
7835;SDS011;3963;42.658;23.298;2022-11-20T08:09:48;5.17;;;1.53;;
7835;SDS011;3963;42.658;23.298;2022-11-20T08:12:16;3.87;;;1.63;;
7835;SDS011;3963;42.658;23.298;2022-11-20T08:15:03;6.67;;;1.60;;
7835;SDS011;3963;42.658;23.298;2022-11-20T08:17:31;5.87;;;2.10;;
7835;SDS011;3963;42.658;23.298;2022-11-20T08:19:58;5.47;;;1.90;;
7835;SDS011;3963;42.658;23.298;2022-11-20T08:22:24;7.80;;;1.60;;
7835;SDS011;3963;42.658;23.298;2022-11-20T08:24:53;3.97;;;2.00;;
7835;SDS011;3963;42.658;23.298;2022-11-20T08:27:19;7.67;;;1.77;;
7835;SDS011;3963;42.658;23.298;2022-11-20T08:29:46;5.23;;;1.90;;
7835;SDS011;3963;42.658;23.298;2022-11-20T08:32:13;7.17;;;2.57;;
7835;SDS011;3963;42.658;23.298;2022-11-20T08:34:39;7.20;;;1.90;;
7835;SDS011;3963;42.658;23.298;2022-11-20T08:37:06;6.63;;;2.27;;
7835;SDS011;3963;42.658;23.298;2022-11-20T08:39:33;6.07;;;2.00;;
7835;SDS011;3963;42.658;23.298;2022-11-20T08:42:01;3.67;;;2.00;;
7835;SDS011;3963;42.658;23.298;2022-11-20T08:44:28;3.37;;;1.30;;
7835;SDS011;3963;42.658;23.298;2022-11-20T08:46:55;4.77;;;1.67;;
7835;SDS011;3963;42.658;23.298;2022-11-20T08:49:22;9.93;;;2.73;;
7835;SDS011;3963;42.658;23.298;2022-11-20T08:51:48;5.57;;;1.70;;
7835;SDS011;3963;42.658;23.298;2022-11-20T08:54:18;2.50;;;2.03;;
7835;SDS011;3963;42.658;23.298;2022-11-20T08:56:46;7.33;;;2.90;;
7835;SDS011;3963;42.658;23.298;2022-11-20T08:59:15;7.60;;;2.87;;
7835;SDS011;3963;42.658;23.298;2022-11-20T09:01:42;8.57;;;3.10;;
7835;SDS011;3963;42.658;23.298;2022-11-20T09:04:08;6.50;;;2.50;;
7835;SDS011;3963;42.658;23.298;2022-11-20T09:06:36;6.00;;;2.77;;
7835;SDS011;3963;42.658;23.298;2022-11-20T09:09:03;5.03;;;2.80;;
7835;SDS011;3963;42.658;23.298;2022-11-20T09:11:30;6.53;;;3.50;;
7835;SDS011;3963;42.658;23.298;2022-11-20T09:13:57;4.63;;;3.03;;
7835;SDS011;3963;42.658;23.298;2022-11-20T09:16:26;5.17;;;2.20;;
7835;SDS011;3963;42.658;23.298;2022-11-20T09:18:53;3.90;;;1.70;;
7835;SDS011;3963;42.658;23.298;2022-11-20T09:21:20;5.10;;;1.93;;
7835;SDS011;3963;42.658;23.298;2022-11-20T09:23:47;7.30;;;2.20;;
7835;SDS011;3963;42.658;23.298;2022-11-20T09:26:14;4.80;;;1.27;;
7835;SDS011;3963;42.658;23.298;2022-11-20T09:28:41;3.33;;;1.37;;
7835;SDS011;3963;42.658;23.298;2022-11-20T09:31:08;2.07;;;1.10;;
7835;SDS011;3963;42.658;23.298;2022-11-20T09:33:42;2.07;;;1.20;;
7835;SDS011;3963;42.658;23.298;2022-11-20T09:36:09;3.93;;;1.37;;
7835;SDS011;3963;42.658;23.298;2022-11-20T09:38:35;2.17;;;1.20;;
7835;SDS011;3963;42.658;23.298;2022-11-20T09:41:03;4.50;;;1.50;;
7835;SDS011;3963;42.658;23.298;2022-11-20T09:43:35;4.73;;;1.70;;
7835;SDS011;3963;42.658;23.298;2022-11-20T09:46:20;4.13;;;1.40;;
7835;SDS011;3963;42.658;23.298;2022-11-20T09:48:58;4.60;;;2.17;;
7835;SDS011;3963;42.658;23.298;2022-11-20T09:51:41;3.40;;;1.47;;
7835;SDS011;3963;42.658;23.298;2022-11-20T09:54:14;5.67;;;2.50;;
7835;SDS011;3963;42.658;23.298;2022-11-20T09:56:44;8.23;;;2.70;;
7835;SDS011;3963;42.658;23.298;2022-11-20T09:59:21;5.13;;;2.30;;
7835;SDS011;3963;42.658;23.298;2022-11-20T10:01:55;6.57;;;2.83;;
7835;SDS011;3963;42.658;23.298;2022-11-20T10:04:24;4.20;;;2.37;;
7835;SDS011;3963;42.658;23.298;2022-11-20T10:06:53;6.20;;;3.00;;
7835;SDS011;3963;42.658;23.298;2022-11-20T10:09:29;4.17;;;2.23;;
7835;SDS011;3963;42.658;23.298;2022-11-20T10:12:12;3.03;;;2.17;;
7835;SDS011;3963;42.658;23.298;2022-11-20T10:14:49;5.07;;;2.60;;
7835;SDS011;3963;42.658;23.298;2022-11-20T10:17:33;5.90;;;3.10;;
7835;SDS011;3963;42.658;23.298;2022-11-20T10:20:20;3.97;;;2.60;;
7835;SDS011;3963;42.658;23.298;2022-11-20T10:23:04;3.73;;;2.50;;
7835;SDS011;3963;42.658;23.298;2022-11-20T10:25:48;4.77;;;2.40;;
7835;SDS011;3963;42.658;23.298;2022-11-20T10:28:25;6.00;;;3.03;;
7835;SDS011;3963;42.658;23.298;2022-11-20T10:31:00;8.17;;;2.50;;
7835;SDS011;3963;42.658;23.298;2022-11-20T10:33:31;3.70;;;2.27;;
7835;SDS011;3963;42.658;23.298;2022-11-20T10:36:07;7.93;;;2.97;;
7835;SDS011;3963;42.658;23.298;2022-11-20T10:38:43;4.50;;;2.87;;
7835;SDS011;3963;42.658;23.298;2022-11-20T10:41:16;6.20;;;3.30;;
7835;SDS011;3963;42.658;23.298;2022-11-20T10:43:52;7.83;;;3.60;;
7835;SDS011;3963;42.658;23.298;2022-11-20T10:46:25;10.20;;;3.07;;
7835;SDS011;3963;42.658;23.298;2022-11-20T10:48:57;8.23;;;3.70;;
7835;SDS011;3963;42.658;23.298;2022-11-20T10:51:30;6.97;;;3.50;;
7835;SDS011;3963;42.658;23.298;2022-11-20T10:54:06;10.13;;;3.73;;
7835;SDS011;3963;42.658;23.298;2022-11-20T10:56:46;8.07;;;4.07;;
7835;SDS011;3963;42.658;23.298;2022-11-20T10:59:27;6.93;;;4.23;;
7835;SDS011;3963;42.658;23.298;2022-11-20T11:02:16;8.17;;;3.77;;
7835;SDS011;3963;42.658;23.298;2022-11-20T11:04:45;8.93;;;4.63;;
7835;SDS011;3963;42.658;23.298;2022-11-20T11:07:16;13.63;;;4.83;;
7835;SDS011;3963;42.658;23.298;2022-11-20T11:09:47;10.90;;;5.50;;
7835;SDS011;3963;42.658;23.298;2022-11-20T11:12:15;8.53;;;3.10;;
7835;SDS011;3963;42.658;23.298;2022-11-20T11:14:43;2.63;;;1.27;;
7835;SDS011;3963;42.658;23.298;2022-11-20T11:17:26;1.93;;;1.30;;
7835;SDS011;3963;42.658;23.298;2022-11-20T11:19:58;2.17;;;0.87;;
7835;SDS011;3963;42.658;23.298;2022-11-20T11:22:28;2.53;;;1.00;;
7835;SDS011;3963;42.658;23.298;2022-11-20T11:24:56;3.07;;;0.80;;
7835;SDS011;3963;42.658;23.298;2022-11-20T11:27:23;3.73;;;1.10;;
7835;SDS011;3963;42.658;23.298;2022-11-20T11:29:50;1.67;;;1.10;;
7835;SDS011;3963;42.658;23.298;2022-11-20T11:32:28;1.53;;;1.13;;
7835;SDS011;3963;42.658;23.298;2022-11-20T11:34:58;3.07;;;0.70;;
7835;SDS011;3963;42.658;23.298;2022-11-20T11:37:28;3.50;;;1.10;;
7835;SDS011;3963;42.658;23.298;2022-11-20T11:40:01;1.47;;;0.90;;
7835;SDS011;3963;42.658;23.298;2022-11-20T11:42:28;1.63;;;1.00;;
7835;SDS011;3963;42.658;23.298;2022-11-20T11:44:56;1.10;;;0.90;;
7835;SDS011;3963;42.658;23.298;2022-11-20T11:47:31;1.43;;;0.90;;
7835;SDS011;3963;42.658;23.298;2022-11-20T11:50:08;2.90;;;1.30;;
7835;SDS011;3963;42.658;23.298;2022-11-20T11:52:43;2.93;;;1.23;;
7835;SDS011;3963;42.658;23.298;2022-11-20T11:55:19;4.00;;;1.23;;
7835;SDS011;3963;42.658;23.298;2022-11-20T11:57:52;7.60;;;1.07;;
7835;SDS011;3963;42.658;23.298;2022-11-20T12:00:23;6.10;;;1.70;;
7835;SDS011;3963;42.658;23.298;2022-11-20T12:02:56;4.07;;;1.30;;
7835;SDS011;3963;42.658;23.298;2022-11-20T12:05:34;2.53;;;1.10;;
7835;SDS011;3963;42.658;23.298;2022-11-20T12:08:09;2.30;;;1.50;;
7835;SDS011;3963;42.658;23.298;2022-11-20T12:10:44;3.83;;;1.17;;
7835;SDS011;3963;42.658;23.298;2022-11-20T12:13:18;2.77;;;0.97;;
7835;SDS011;3963;42.658;23.298;2022-11-20T12:15:51;3.83;;;1.10;;
7835;SDS011;3963;42.658;23.298;2022-11-20T12:18:18;1.70;;;0.80;;
7835;SDS011;3963;42.658;23.298;2022-11-20T12:20:49;1.97;;;1.10;;
7835;SDS011;3963;42.658;23.298;2022-11-20T12:23:30;1.37;;;1.03;;
7835;SDS011;3963;42.658;23.298;2022-11-20T12:26:10;3.37;;;1.20;;
7835;SDS011;3963;42.658;23.298;2022-11-20T12:28:48;1.93;;;1.10;;
7835;SDS011;3963;42.658;23.298;2022-11-20T12:31:36;2.97;;;1.33;;
7835;SDS011;3963;42.658;23.298;2022-11-20T12:34:14;0.70;;;0.70;;
7835;SDS011;3963;42.658;23.298;2022-11-20T12:36:52;1.50;;;1.20;;
7835;SDS011;3963;42.658;23.298;2022-11-20T12:39:34;4.70;;;1.17;;
7835;SDS011;3963;42.658;23.298;2022-11-20T12:42:10;2.37;;;1.20;;
7835;SDS011;3963;42.658;23.298;2022-11-20T12:48:12;3.00;;;1.30;;
7835;SDS011;3963;42.658;23.298;2022-11-20T12:51:05;4.50;;;1.77;;
7835;SDS011;3963;42.658;23.298;2022-11-20T12:53:48;2.70;;;1.10;;
7835;SDS011;3963;42.658;23.298;2022-11-20T12:56:30;5.50;;;1.00;;
7835;SDS011;3963;42.658;23.298;2022-11-20T12:59:13;2.23;;;1.20;;
7835;SDS011;3963;42.658;23.298;2022-11-20T13:01:50;5.73;;;1.53;;
7835;SDS011;3963;42.658;23.298;2022-11-20T13:04:33;7.67;;;2.30;;
7835;SDS011;3963;42.658;23.298;2022-11-20T13:07:17;5.37;;;2.10;;
7835;SDS011;3963;42.658;23.298;2022-11-20T13:09:46;4.47;;;2.37;;
7835;SDS011;3963;42.658;23.298;2022-11-20T13:12:19;5.70;;;2.43;;
7835;SDS011;3963;42.658;23.298;2022-11-20T13:14:52;6.87;;;2.87;;
7835;SDS011;3963;42.658;23.298;2022-11-20T13:17:25;3.90;;;2.83;;
7835;SDS011;3963;42.658;23.298;2022-11-20T13:19:59;6.97;;;2.93;;
7835;SDS011;3963;42.658;23.298;2022-11-20T13:22:26;9.17;;;3.30;;
7835;SDS011;3963;42.658;23.298;2022-11-20T13:24:54;7.33;;;3.20;;
7835;SDS011;3963;42.658;23.298;2022-11-20T13:27:22;8.47;;;3.03;;
7835;SDS011;3963;42.658;23.298;2022-11-20T13:30:00;5.43;;;2.77;;
7835;SDS011;3963;42.658;23.298;2022-11-20T13:32:29;6.97;;;2.80;;
7835;SDS011;3963;42.658;23.298;2022-11-20T13:34:58;6.77;;;3.10;;
7835;SDS011;3963;42.658;23.298;2022-11-20T13:37:28;4.43;;;2.97;;
7835;SDS011;3963;42.658;23.298;2022-11-20T13:40:12;6.33;;;3.30;;
7835;SDS011;3963;42.658;23.298;2022-11-20T13:42:54;5.40;;;2.80;;
7835;SDS011;3963;42.658;23.298;2022-11-20T13:45:24;7.87;;;3.10;;
7835;SDS011;3963;42.658;23.298;2022-11-20T13:47:53;7.23;;;3.20;;
7835;SDS011;3963;42.658;23.298;2022-11-20T13:50:21;6.30;;;3.33;;
7835;SDS011;3963;42.658;23.298;2022-11-20T13:53:05;9.33;;;3.93;;
7835;SDS011;3963;42.658;23.298;2022-11-20T13:55:49;6.20;;;3.70;;
7835;SDS011;3963;42.658;23.298;2022-11-20T13:58:40;6.30;;;3.40;;
7835;SDS011;3963;42.658;23.298;2022-11-20T14:01:17;5.83;;;3.87;;
7835;SDS011;3963;42.658;23.298;2022-11-20T14:03:48;10.03;;;4.17;;
7835;SDS011;3963;42.658;23.298;2022-11-20T14:06:19;6.53;;;3.97;;
7835;SDS011;3963;42.658;23.298;2022-11-20T14:08:53;10.00;;;4.70;;
7835;SDS011;3963;42.658;23.298;2022-11-20T14:11:21;10.80;;;5.23;;
7835;SDS011;3963;42.658;23.298;2022-11-20T14:13:58;10.90;;;5.17;;
7835;SDS011;3963;42.658;23.298;2022-11-20T14:16:28;9.97;;;5.60;;
7835;SDS011;3963;42.658;23.298;2022-11-20T14:18:56;15.63;;;7.80;;
7835;SDS011;3963;42.658;23.298;2022-11-20T14:21:24;11.90;;;7.00;;
7835;SDS011;3963;42.658;23.298;2022-11-20T14:23:53;13.13;;;6.70;;
7835;SDS011;3963;42.658;23.298;2022-11-20T14:26:20;6.37;;;3.60;;
7835;SDS011;3963;42.658;23.298;2022-11-20T14:28:48;6.20;;;3.40;;
7835;SDS011;3963;42.658;23.298;2022-11-20T14:31:21;7.63;;;3.33;;
7835;SDS011;3963;42.658;23.298;2022-11-20T14:33:50;4.37;;;2.43;;
7835;SDS011;3963;42.658;23.298;2022-11-20T14:36:20;5.57;;;3.03;;
7835;SDS011;3963;42.658;23.298;2022-11-20T14:38:48;3.90;;;2.53;;
7835;SDS011;3963;42.658;23.298;2022-11-20T14:41:17;8.70;;;2.77;;
7835;SDS011;3963;42.658;23.298;2022-11-20T14:43:45;4.97;;;2.10;;
7835;SDS011;3963;42.658;23.298;2022-11-20T14:46:13;3.63;;;2.17;;
7835;SDS011;3963;42.658;23.298;2022-11-20T14:48:43;3.67;;;2.10;;
7835;SDS011;3963;42.658;23.298;2022-11-20T14:51:12;5.13;;;2.27;;
7835;SDS011;3963;42.658;23.298;2022-11-20T14:53:52;5.07;;;2.40;;
7835;SDS011;3963;42.658;23.298;2022-11-20T14:56:21;5.17;;;2.30;;
7835;SDS011;3963;42.658;23.298;2022-11-20T14:58:56;4.47;;;2.50;;
7835;SDS011;3963;42.658;23.298;2022-11-20T15:01:25;3.83;;;2.20;;
7835;SDS011;3963;42.658;23.298;2022-11-20T15:03:58;2.97;;;1.93;;
7835;SDS011;3963;42.658;23.298;2022-11-20T15:06:27;4.33;;;1.60;;
7835;SDS011;3963;42.658;23.298;2022-11-20T15:08:54;3.67;;;1.70;;
7835;SDS011;3963;42.658;23.298;2022-11-20T15:11:23;2.83;;;1.70;;
7835;SDS011;3963;42.658;23.298;2022-11-20T15:13:55;2.80;;;1.83;;
7835;SDS011;3963;42.658;23.298;2022-11-20T15:16:23;3.03;;;1.90;;
7835;SDS011;3963;42.658;23.298;2022-11-20T15:18:53;2.13;;;1.70;;
7835;SDS011;3963;42.658;23.298;2022-11-20T15:21:22;3.93;;;2.10;;